Elkhart Lake, Wisconsin
Current Conditions -  °F | °C
As of 10:53 AM on Friday 19 Dec 2014 (Local Time) from KSBM Reporting Station
Overcast Overcast  
Wind Chill: 21°   Ceiling: 2800
Heat Index: 29°   Visibility: 10mi
Dew Point: 20°   Wind: 8mph
Humidity: 69%   Direction: 320°NW
Pressure: 30.28"   Gusts: NA
Location:  43.83°N, 88.02°W
Report Text: KSBM 191653Z AUTO 32007KT 10SM OVC028 M02/M07 A3028 RMK AO2 SLP267 T10171067
Loading
Personal Weather Stations






























Interactive Weather Map New forecast layout! Learn more

10-Day Weather Forecast

Advertisements
Track Severe Weather on mobile